Birdum, Australia
Current Conditions -  °F | °C
As of 4:00 PM on Saturday 25 Oct 2014 (Local Time) from YPTN Reporting Station
Clear Clear  
Wind Chill: 99°   Ceiling: Unl
Heat Index: 99°   Visibility: 6mi
Dew Point: 37°   Wind: 10mph
Humidity: 12%   Direction: 100°E
Pressure: 29.83"   Gusts: NA
Location:  15.65°S, 133.21°E
Report Text: YPTN 250700Z AUTO 10009KT 9999 // NCD 37/03 Q1010
Loading
Personal Weather Stations






























Interactive Weather Map
Tropical Storm Tracking
New forecast layout! Learn more

10-Day Weather Forecast

Advertisements
Track Severe Weather on mobile